Time;durP1;ratioP1;P1;durP2;ratioP2;P2;SDS_P1;SDS_P2;PMS_P1;PMS_P2;Temp;Humidity;BMP_temperature;BMP_pressure;BME280_temperature;BME280_humidity;BME280_pressure;Samples;Min_cycle;Max_cycle;Signal;HPM_P1;HPM_P2
2021/04/24 00:02:22;;;;;;;10.10;3.00;;;11.60;57.20;;;;;;5016438;28;20025;-60
2021/04/24 00:04:48;;;;;;;6.90;3.30;;;11.50;57.40;;;;;;5016139;28;20060;-60
2021/04/24 00:07:14;;;;;;;7.38;3.40;;;11.50;57.40;;;;;;5016736;28;20492;-60
2021/04/24 00:09:40;;;;;;;10.70;4.30;;;11.40;57.30;;;;;;5016829;28;20026;-59
2021/04/24 00:12:07;;;;;;;9.48;4.25;;;11.40;57.40;;;;;;5015801;28;20139;-60
2021/04/24 00:14:33;;;;;;;7.85;3.30;;;11.40;57.50;;;;;;5016435;28;20054;-59
2021/04/24 00:16:58;;;;;;;7.90;3.58;;;11.40;57.50;;;;;;5016426;28;20461;-60
2021/04/24 00:19:25;;;;;;;11.95;3.47;;;11.30;57.50;;;;;;5015843;28;20105;-60
2021/04/24 00:21:50;;;;;;;8.70;3.88;;;11.30;57.60;;;;;;5016606;28;20076;-60
2021/04/24 00:24:16;;;;;;;12.10;4.13;;;11.30;57.70;;;;;;5014699;28;20025;-60
2021/04/24 00:26:42;;;;;;;8.35;3.80;;;11.20;57.80;;;;;;5015380;28;20046;-60
2021/04/24 00:29:07;;;;;;;8.32;4.30;;;11.20;58.00;;;;;;5016212;28;20030;-60
2021/04/24 00:31:33;;;;;;;9.25;4.45;;;11.20;58.10;;;;;;5015874;28;20100;-60
2021/04/24 00:33:59;;;;;;;10.25;3.38;;;11.10;58.10;;;;;;5015571;28;20030;-60
2021/04/24 00:36:24;;;;;;;10.95;3.97;;;11.20;58.30;;;;;;5016074;28;20069;-60
2021/04/24 00:38:53;;;;;;;10.43;4.88;;;11.10;58.30;;;;;;5016252;28;20030;-60
2021/04/24 00:41:18;;;;;;;9.88;3.60;;;11.10;58.50;;;;;;5014953;28;20493;-60
2021/04/24 00:43:44;;;;;;;7.35;3.92;;;11.10;58.60;;;;;;5015904;28;20034;-60
2021/04/24 00:46:12;;;;;;;9.75;4.85;;;11.00;58.60;;;;;;5015738;28;20048;-60
2021/04/24 00:48:38;;;;;;;10.73;4.20;;;11.00;58.60;;;;;;5015201;28;20029;-60
2021/04/24 00:51:05;;;;;;;13.00;4.97;;;11.00;58.60;;;;;;5015849;28;20029;-59
2021/04/24 00:53:31;;;;;;;10.70;4.60;;;11.00;58.70;;;;;;5015816;28;20389;-59
2021/04/24 00:55:57;;;;;;;7.43;4.15;;;10.90;58.70;;;;;;5015081;28;20025;-60
2021/04/24 00:58:25;;;;;;;10.15;4.30;;;10.90;58.90;;;;;;5015382;28;20494;-60
2021/04/24 01:00:51;;;;;;;13.18;4.47;;;10.90;58.90;;;;;;5015742;28;20034;-60
2021/04/24 01:03:16;;;;;;;11.90;4.72;;;10.90;58.90;;;;;;5014310;28;20037;-60
2021/04/24 01:05:43;;;;;;;8.68;4.38;;;10.90;59.00;;;;;;5015522;28;20054;-60
2021/04/24 01:08:10;;;;;;;9.88;4.40;;;10.80;59.00;;;;;;5012580;28;20486;-60
2021/04/24 01:10:37;;;;;;;9.02;4.50;;;10.80;59.70;;;;;;5015655;28;20037;-60
2021/04/24 01:13:04;;;;;;;11.20;5.20;;;10.80;59.10;;;;;;5015152;28;20034;-60
2021/04/24 01:15:30;;;;;;;7.15;4.60;;;10.80;59.30;;;;;;5014726;28;20073;-59
2021/04/24 01:17:56;;;;;;;8.45;4.30;;;10.70;59.50;;;;;;5015588;28;20109;-60
2021/04/24 01:20:22;;;;;;;11.15;4.40;;;10.70;59.60;;;;;;5015019;28;20034;-60
2021/04/24 01:22:49;;;;;;;10.65;3.97;;;10.70;59.60;;;;;;5014640;28;20037;-60
2021/04/24 01:25:20;;;;;;;18.67;4.80;;;10.70;59.50;;;;;;5014966;28;20046;-60
2021/04/24 01:27:48;;;;;;;9.02;4.63;;;10.60;59.50;;;;;;5015261;28;20414;-60
2021/04/24 01:30:16;;;;;;;12.07;4.72;;;10.60;59.70;;;;;;5014240;28;20052;-60
2021/04/24 01:32:41;;;;;;;8.38;4.60;;;10.60;59.80;;;;;;5015224;28;20030;-60
2021/04/24 01:35:11;;;;;;;9.60;4.75;;;10.60;59.90;;;;;;5015108;28;20034;-60
2021/04/24 01:37:37;;;;;;;13.23;4.70;;;10.50;59.90;;;;;;5014249;28;20064;-60
2021/04/24 01:40:08;;;;;;;9.85;4.25;;;10.50;59.90;;;;;;5014942;28;20041;-60
2021/04/24 01:42:34;;;;;;;15.00;4.72;;;10.50;60.00;;;;;;5015009;28;20113;-59
2021/04/24 01:44:59;;;;;;;10.57;4.43;;;10.40;60.00;;;;;;5014028;28;20172;-60
2021/04/24 01:47:36;;;;;;;10.43;4.82;;;10.40;60.20;;;;;;4998578;28;20034;-60
2021/04/24 01:50:06;;;;;;;11.45;4.32;;;10.40;60.30;;;;;;5014713;28;20375;-60
2021/04/24 01:52:34;;;;;;;13.07;4.80;;;10.40;60.40;;;;;;5013920;28;20045;-60
2021/04/24 01:54:59;;;;;;;8.48;4.15;;;10.40;60.40;;;;;;5014880;28;20034;-60
2021/04/24 01:57:25;;;;;;;9.93;4.47;;;10.30;60.40;;;;;;5014001;28;20044;-60
2021/04/24 01:59:51;;;;;;;11.85;4.10;;;10.30;60.50;;;;;;5014644;28;20390;-59
2021/04/24 02:02:16;;;;;;;9.07;4.72;;;10.30;60.50;;;;;;5014631;28;20034;-59
2021/04/24 02:04:43;;;;;;;10.65;4.75;;;10.30;60.60;;;;;;5013742;28;20033;-60
2021/04/24 02:07:11;;;;;;;8.77;4.45;;;10.20;60.70;;;;;;5014499;28;20041;-60
2021/04/24 02:09:37;;;;;;;7.85;4.50;;;10.20;61.10;;;;;;5014189;28;20037;-60
2021/04/24 02:12:12;;;;;;;12.10;4.60;;;10.20;61.20;;;;;;5013885;28;20041;-59
2021/04/24 02:14:43;;;;;;;13.32;4.78;;;10.20;61.60;;;;;;5013121;28;20060;-60
2021/04/24 02:17:24;;;;;;;16.27;4.35;;;10.20;62.00;;;;;;5014465;28;20033;-60
2021/04/24 02:19:51;;;;;;;7.90;5.03;;;10.10;62.10;;;;;;4995978;28;20025;-60
2021/04/24 02:22:19;;;;;;;9.73;4.22;;;10.10;62.30;;;;;;5014376;28;20120;-60
2021/04/24 02:24:54;;;;;;;11.23;4.03;;;10.10;62.70;;;;;;5014035;28;20088;-60
2021/04/24 02:27:20;;;;;;;13.63;5.05;;;10.10;63.00;;;;;;5013596;28;20381;-60
2021/04/24 02:29:46;;;;;;;17.77;5.60;;;10.10;63.10;;;;;;5014184;28;20029;-60
2021/04/24 02:32:14;;;;;;;12.88;4.40;;;10.00;63.20;;;;;;5013643;28;20037;-60
2021/04/24 02:34:46;;;;;;;11.95;4.72;;;10.00;63.40;;;;;;5013579;28;20030;-60
2021/04/24 02:37:14;;;;;;;10.52;4.78;;;10.00;63.60;;;;;;5013734;28;20068;-60
2021/04/24 02:39:42;;;;;;;9.15;4.63;;;9.90;63.60;;;;;;5013384;28;20448;-60
2021/04/24 02:42:14;;;;;;;9.18;4.60;;;9.90;63.80;;;;;;5014000;28;20038;-59
2021/04/24 02:44:41;;;;;;;7.78;4.15;;;10.00;64.00;;;;;;5000675;28;20049;-59
2021/04/24 02:47:07;;;;;;;14.23;4.93;;;9.90;63.80;;;;;;5013862;28;20049;-60
2021/04/24 02:49:33;;;;;;;15.93;4.55;;;10.00;63.90;;;;;;5013653;28;20038;-60
2021/04/24 02:52:03;;;;;;;11.95;5.35;;;9.90;64.10;;;;;;5013888;28;20045;-59
2021/04/24 02:54:29;;;;;;;10.77;4.10;;;9.90;64.20;;;;;;5012800;28;20405;-59
2021/04/24 02:56:55;;;;;;;11.00;4.50;;;9.90;64.30;;;;;;5013649;28;20036;-59
2021/04/24 02:59:21;;;;;;;23.98;4.38;;;9.90;64.50;;;;;;5013368;28;20113;-60
2021/04/24 03:01:47;;;;;;;8.55;4.32;;;9.80;64.40;;;;;;5012982;28;20112;-59
2021/04/24 03:04:14;;;;;;;16.25;4.50;;;9.80;64.30;;;;;;5013504;28;20470;-59
2021/04/24 03:06:41;;;;;;;8.75;4.63;;;9.80;64.50;;;;;;5013358;28;20397;-59
2021/04/24 03:09:07;;;;;;;9.65;3.90;;;9.80;64.70;;;;;;5012778;28;20084;-60
2021/04/24 03:11:33;;;;;;;10.52;4.28;;;9.80;64.90;;;;;;5013227;28;20046;-59
2021/04/24 03:13:59;;;;;;;17.27;4.72;;;9.80;65.00;;;;;;5004276;28;20042;-60
2021/04/24 03:16:25;;;;;;;12.48;4.72;;;9.80;65.20;;;;;;5009961;28;20073;-59
2021/04/24 03:18:53;;;;;;;8.30;4.18;;;9.70;65.20;;;;;;5013318;28;20493;-60
2021/04/24 03:21:20;;;;;;;8.80;4.18;;;9.70;65.40;;;;;;5012969;28;20105;-60
2021/04/24 03:23:46;;;;;;;14.57;4.65;;;9.70;65.40;;;;;;5012468;28;20140;-60
2021/04/24 03:26:12;;;;;;;8.20;4.50;;;9.60;65.60;;;;;;5012736;28;20044;-59
2021/04/24 03:28:38;;;;;;;14.27;4.45;;;9.60;65.80;;;;;;5012954;28;20033;-60
2021/04/24 03:31:03;;;;;;;10.57;4.38;;;9.60;65.90;;;;;;5012445;28;20455;-60
2021/04/24 03:33:29;;;;;;;9.18;4.43;;;9.60;66.00;;;;;;5012941;28;20025;-60
2021/04/24 03:35:55;;;;;;;14.18;4.40;;;9.60;66.10;;;;;;5012360;28;20026;-60
2021/04/24 03:38:20;;;;;;;12.23;3.85;;;9.60;66.20;;;;;;5013029;28;20079;-60
2021/04/24 03:40:46;;;;;;;8.98;4.70;;;9.60;66.30;;;;;;5012773;28;20061;-59
2021/04/24 03:43:12;;;;;;;8.25;4.28;;;9.50;66.40;;;;;;5012197;28;20033;-59
2021/04/24 03:45:38;;;;;;;11.50;4.95;;;9.60;66.50;;;;;;5012530;28;20069;-60
2021/04/24 03:48:05;;;;;;;13.20;4.38;;;9.60;66.60;;;;;;5013065;28;20381;-60
2021/04/24 03:50:30;;;;;;;11.27;4.38;;;9.60;66.70;;;;;;5012218;28;20115;-59
2021/04/24 03:52:59;;;;;;;8.13;4.18;;;9.50;66.80;;;;;;5012639;28;20462;-59
2021/04/24 03:55:25;;;;;;;10.23;4.00;;;9.50;66.90;;;;;;5012835;28;20030;-59
2021/04/24 03:57:54;;;;;;;8.70;3.58;;;9.50;66.90;;;;;;5012049;28;20033;-60
2021/04/24 04:00:22;;;;;;;13.93;5.07;;;9.50;66.90;;;;;;5012789;28;20469;-60
2021/04/24 04:02:57;;;;;;;12.65;4.18;;;9.50;66.90;;;;;;5012660;28;20132;-60
2021/04/24 04:05:28;;;;;;;8.95;4.43;;;9.50;67.20;;;;;;5012127;28;20041;-60
2021/04/24 04:07:55;;;;;;;12.52;4.72;;;9.50;67.20;;;;;;5012578;28;20060;-60
2021/04/24 04:10:21;;;;;;;9.98;4.35;;;9.50;67.30;;;;;;5012554;28;20033;-60
2021/04/24 04:12:48;;;;;;;11.68;4.53;;;9.50;67.40;;;;;;5012032;28;20069;-60
2021/04/24 04:15:15;;;;;;;11.48;4.35;;;9.50;67.50;;;;;;5012490;28;20072;-60
2021/04/24 04:17:41;;;;;;;13.05;4.30;;;9.40;67.50;;;;;;5012833;28;20030;-59
2021/04/24 04:20:10;;;;;;;11.23;4.18;;;9.40;67.50;;;;;;5011778;28;20417;-60
2021/04/24 04:22:36;;;;;;;14.00;4.47;;;9.40;67.60;;;;;;5012422;28;20444;-60
2021/04/24 04:25:03;;;;;;;16.20;5.57;;;9.40;67.70;;;;;;5011680;28;20429;-60
2021/04/24 04:27:29;;;;;;;10.82;4.45;;;9.40;67.80;;;;;;5012733;28;20354;-60
2021/04/24 04:29:55;;;;;;;9.10;4.32;;;9.40;67.80;;;;;;5012503;28;20038;-60
2021/04/24 04:32:21;;;;;;;12.85;4.50;;;9.40;67.80;;;;;;5011718;28;20029;-59
2021/04/24 04:34:47;;;;;;;9.27;4.03;;;9.40;67.70;;;;;;5012544;28;20045;-60
2021/04/24 04:37:13;;;;;;;10.13;4.30;;;9.40;67.60;;;;;;5013916;28;20485;-60
2021/04/24 04:39:40;;;;;;;8.25;3.95;;;9.50;67.60;;;;;;5015416;28;20438;-59
2021/04/24 04:42:06;;;;;;;11.27;4.10;;;9.40;67.30;;;;;;5016297;28;20168;-60
2021/04/24 04:44:32;;;;;;;13.93;3.95;;;9.40;67.10;;;;;;5015783;28;20037;-60
2021/04/24 04:46:58;;;;;;;10.10;4.43;;;9.40;66.90;;;;;;5015389;28;20033;-60
2021/04/24 04:49:24;;;;;;;16.55;4.25;;;9.40;66.70;;;;;;5015820;28;20037;-60
2021/04/24 04:51:49;;;;;;;13.05;4.18;;;9.50;66.90;;;;;;5015908;28;20040;-59
2021/04/24 04:54:15;;;;;;;9.52;4.05;;;9.40;66.80;;;;;;5015086;28;20026;-60
2021/04/24 04:56:41;;;;;;;8.13;3.88;;;9.40;66.80;;;;;;5015862;28;20363;-59
2021/04/24 04:59:07;;;;;;;7.18;3.78;;;9.50;66.70;;;;;;5015729;28;20034;-60
2021/04/24 05:01:32;;;;;;;7.50;4.03;;;9.40;66.50;;;;;;5014913;28;20021;-59
2021/04/24 05:03:58;;;;;;;12.50;4.18;;;9.40;66.50;;;;;;5015740;28;20029;-60
2021/04/24 05:06:24;;;;;;;9.35;3.70;;;9.40;66.60;;;;;;5015199;28;20046;-60
2021/04/24 05:08:52;;;;;;;11.05;3.55;;;9.40;66.50;;;;;;5015216;28;20030;-59
2021/04/24 05:11:18;;;;;;;8.35;4.32;;;9.40;66.20;;;;;;5015708;28;20029;-60
2021/04/24 05:13:44;;;;;;;11.65;4.60;;;9.30;66.10;;;;;;5015405;28;20104;-60
2021/04/24 05:16:13;;;;;;;15.32;4.15;;;9.30;66.20;;;;;;5014821;28;20080;-60
2021/04/24 05:18:40;;;;;;;12.00;4.53;;;9.30;66.30;;;;;;5014966;28;20121;-60
2021/04/24 05:21:06;;;;;;;9.85;4.28;;;9.30;66.20;;;;;;5015246;28;20109;-60
2021/04/24 05:23:32;;;;;;;11.75;4.75;;;9.30;66.40;;;;;;5014425;28;20029;-59
2021/04/24 05:25:57;;;;;;;8.85;4.10;;;9.30;66.40;;;;;;5015207;28;20042;-59
2021/04/24 05:28:23;;;;;;;10.68;3.97;;;9.40;66.60;;;;;;5014529;28;20038;-60
2021/04/24 05:30:49;;;;;;;6.93;3.90;;;9.40;66.80;;;;;;5015160;28;20037;-60
2021/04/24 05:33:14;;;;;;;10.05;4.28;;;9.40;66.90;;;;;;5015185;28;20068;-59
2021/04/24 05:35:40;;;;;;;12.18;4.15;;;9.40;67.00;;;;;;5014157;28;20033;-60
2021/04/24 05:38:09;;;;;;;9.18;4.22;;;9.40;67.30;;;;;;5014815;28;20029;-60
2021/04/24 05:40:34;;;;;;;14.40;4.10;;;9.40;67.30;;;;;;5014987;28;20048;-59
2021/04/24 05:43:00;;;;;;;12.50;4.18;;;9.40;67.50;;;;;;5014381;28;20022;-59
2021/04/24 05:45:26;;;;;;;9.95;3.50;;;9.40;67.90;;;;;;5014847;28;20409;-60
2021/04/24 05:47:52;;;;;;;8.93;3.42;;;9.50;68.20;;;;;;5014389;28;20041;-60
2021/04/24 05:50:21;;;;;;;10.93;3.45;;;9.50;68.50;;;;;;5014043;28;20180;-65
2021/04/24 05:52:47;;;;;;;13.25;3.58;;;9.50;68.70;;;;;;5014583;28;20362;-60
2021/04/24 05:55:14;;;;;;;11.27;3.13;;;9.50;68.70;;;;;;5014829;28;20041;-61
2021/04/24 05:57:43;;;;;;;16.95;3.85;;;9.50;69.00;;;;;;5013939;28;20385;-61
2021/04/24 06:00:12;;;;;;;9.45;3.50;;;9.40;69.10;;;;;;5014622;28;20107;-60
2021/04/24 06:02:38;;;;;;;12.95;3.38;;;9.40;69.30;;;;;;5014425;28;20045;-60
2021/04/24 06:05:09;;;;;;;16.98;2.97;;;9.30;69.50;;;;;;5013716;28;20053;-60
2021/04/24 06:07:36;;;;;;;10.43;3.42;;;9.30;69.90;;;;;;5014632;28;20036;-60
2021/04/24 06:10:04;;;;;;;10.55;3.03;;;9.20;69.90;;;;;;5014411;28;20026;-59
2021/04/24 06:12:29;;;;;;;12.60;3.40;;;9.10;70.00;;;;;;5013797;28;20033;-60
2021/04/24 06:14:55;;;;;;;8.73;2.72;;;9.10;70.10;;;;;;5013998;28;20042;-60
2021/04/24 06:17:21;;;;;;;10.25;4.25;;;9.10;70.20;;;;;;5014179;28;20033;-60
2021/04/24 06:19:47;;;;;;;7.97;2.45;;;9.20;70.70;;;;;;5013411;28;20037;-60
2021/04/24 06:22:13;;;;;;;9.88;3.70;;;9.20;70.90;;;;;;5014148;28;20032;-60
2021/04/24 06:24:38;;;;;;;19.60;3.55;;;9.10;71.10;;;;;;5013527;28;20061;-60
2021/04/24 06:27:04;;;;;;;11.80;3.92;;;9.10;71.30;;;;;;5013967;28;20041;-60
2021/04/24 06:29:30;;;;;;;12.38;3.75;;;9.20;71.30;;;;;;5014064;28;20039;-60
2021/04/24 06:31:56;;;;;;;10.48;3.10;;;9.10;71.30;;;;;;5013133;28;20107;-60
2021/04/24 06:34:21;;;;;;;10.68;3.22;;;9.20;71.50;;;;;;5013691;28;20026;-60
2021/04/24 06:36:47;;;;;;;7.72;2.05;;;9.20;71.60;;;;;;5013501;28;20030;-60
2021/04/24 06:39:15;;;;;;;12.75;3.10;;;9.20;71.40;;;;;;5012468;28;20486;-60
2021/04/24 06:41:41;;;;;;;13.15;3.65;;;9.20;71.30;;;;;;5013091;28;20033;-59
2021/04/24 06:44:07;;;;;;;15.60;3.58;;;9.20;71.50;;;;;;5013092;28;20029;-60
2021/04/24 06:46:35;;;;;;;11.77;2.55;;;9.20;71.60;;;;;;4994810;28;20042;-60
2021/04/24 06:49:01;;;;;;;13.30;3.42;;;9.30;72.00;;;;;;5012848;28;20021;-59
2021/04/24 06:51:26;;;;;;;23.67;3.38;;;9.30;71.90;;;;;;4995672;28;20040;-60
2021/04/24 06:53:53;;;;;;;13.30;2.25;;;9.30;72.00;;;;;;5012705;28;20049;-60
2021/04/24 06:56:19;;;;;;;9.73;2.47;;;9.30;71.80;;;;;;5013440;28;20026;-60
2021/04/24 06:58:45;;;;;;;17.17;4.82;;;9.30;71.70;;;;;;5012821;28;20397;-60
2021/04/24 07:01:11;;;;;;;10.85;2.60;;;9.40;71.90;;;;;;5011663;28;20026;-60
2021/04/24 07:03:37;;;;;;;16.25;4.05;;;9.40;71.70;;;;;;5013143;28;20053;-59
2021/04/24 07:06:06;;;;;;;14.70;3.53;;;9.40;71.70;;;;;;5012497;28;20108;-60
2021/04/24 07:08:32;;;;;;;6.95;2.42;;;9.40;71.50;;;;;;5012272;28;20032;-60
2021/04/24 07:10:58;;;;;;;17.77;3.72;;;9.50;71.50;;;;;;5012959;28;20034;-60
2021/04/24 07:13:23;;;;;;;14.60;3.58;;;9.50;71.70;;;;;;5012467;28;20046;-60
2021/04/24 07:15:49;;;;;;;13.02;2.88;;;9.50;71.80;;;;;;5012962;28;20371;-60
2021/04/24 07:18:15;;;;;;;8.98;2.72;;;9.50;71.60;;;;;;5013096;28;20022;-64
2021/04/24 07:20:41;;;;;;;13.45;3.95;;;9.50;71.20;;;;;;5012787;28;20057;-63
2021/04/24 07:23:07;;;;;;;18.80;3.90;;;9.60;71.40;;;;;;5011451;28;20021;-63
2021/04/24 07:25:33;;;;;;;10.50;3.92;;;9.60;71.40;;;;;;5012094;28;20041;-63
2021/04/24 07:27:59;;;;;;;17.40;4.10;;;9.70;71.40;;;;;;5011763;28;20493;-63
2021/04/24 07:30:25;;;;;;;16.95;4.43;;;9.70;71.10;;;;;;5012365;28;20037;-62
2021/04/24 07:32:51;;;;;;;14.48;3.53;;;9.70;71.00;;;;;;5012577;28;20013;-62
2021/04/24 07:35:16;;;;;;;8.75;2.40;;;9.70;71.10;;;;;;5011680;28;20167;-63
2021/04/24 07:37:43;;;;;;;16.77;3.58;;;9.80;71.20;;;;;;5012230;28;20029;-61
2021/04/24 07:40:09;;;;;;;11.02;2.55;;;9.80;71.40;;;;;;5012284;28;20433;-61
2021/04/24 07:42:35;;;;;;;15.30;4.00;;;9.80;71.30;;;;;;5011044;28;20018;-60
2021/04/24 07:45:01;;;;;;;15.77;3.15;;;9.90;71.30;;;;;;5011563;28;20041;-60
2021/04/24 07:47:27;;;;;;;13.88;3.30;;;9.90;71.30;;;;;;5012414;28;20473;-59
2021/04/24 07:49:52;;;;;;;11.60;3.17;;;9.90;71.60;;;;;;5008757;28;20030;-60
2021/04/24 07:52:20;;;;;;;16.27;3.38;;;9.90;71.80;;;;;;4995882;28;20022;-60
2021/04/24 07:54:45;;;;;;;8.30;2.58;;;10.00;71.60;;;;;;4997193;28;20117;-60
2021/04/24 07:57:12;;;;;;;13.38;3.08;;;10.00;71.60;;;;;;4992212;28;20448;-60
2021/04/24 07:59:38;;;;;;;13.25;3.08;;;10.00;71.60;;;;;;4994814;28;20132;-60
2021/04/24 08:02:05;;;;;;;14.63;4.38;;;10.10;71.70;;;;;;4974729;28;20486;-60
2021/04/24 08:04:30;;;;;;;20.30;4.28;;;10.10;71.70;;;;;;4993843;28;20574;-60
2021/04/24 08:06:56;;;;;;;19.98;4.22;;;10.10;71.10;;;;;;4991209;28;20044;-60
2021/04/24 08:09:23;;;;;;;13.48;3.78;;;10.10;71.00;;;;;;4991219;28;20026;-60
2021/04/24 08:11:48;;;;;;;17.73;3.30;;;10.20;71.20;;;;;;4993872;28;20053;-60
2021/04/24 08:14:14;;;;;;;13.35;3.60;;;10.20;71.00;;;;;;4994131;28;20050;-60
2021/04/24 08:16:40;;;;;;;21.48;4.53;;;10.20;71.00;;;;;;4998491;28;20061;-60
2021/04/24 08:19:05;;;;;;;15.35;3.35;;;10.30;71.10;;;;;;4999053;28;20026;-61
2021/04/24 08:21:32;;;;;;;14.05;3.15;;;10.40;71.30;;;;;;4995275;28;20086;-60
2021/04/24 08:24:00;;;;;;;19.58;3.72;;;10.40;70.50;;;;;;4996319;28;20026;-60
2021/04/24 08:26:28;;;;;;;13.07;3.35;;;10.40;70.60;;;;;;4998035;28;20045;-61
2021/04/24 08:28:53;;;;;;;14.43;2.67;;;10.40;71.20;;;;;;5001767;28;20152;-60
2021/04/24 08:31:19;;;;;;;11.68;2.95;;;10.50;69.90;;;;;;5015497;28;20061;-60
2021/04/24 08:33:45;;;;;;;15.55;3.63;;;10.60;70.00;;;;;;5016259;28;20416;-61
2021/04/24 08:36:11;;;;;;;20.08;3.83;;;10.50;69.70;;;;;;5015624;28;20370;-60
2021/04/24 08:38:37;;;;;;;9.60;2.42;;;10.60;70.00;;;;;;5014778;28;20397;-60
2021/04/24 08:41:07;;;;;;;9.25;2.28;;;10.60;69.20;;;;;;5015451;28;20022;-59
2021/04/24 08:43:39;;;;;;;14.82;2.20;;;10.60;69.50;;;;;;5015952;28;20026;-60
2021/04/24 08:46:06;;;;;;;18.20;3.97;;;10.70;69.10;;;;;;5013565;28;20061;-60
2021/04/24 08:48:34;;;;;;;10.30;2.65;;;10.70;69.30;;;;;;4996160;28;20061;-61
2021/04/24 08:51:01;;;;;;;11.93;2.55;;;10.70;68.70;;;;;;5011577;28;20037;-61
2021/04/24 08:53:27;;;;;;;9.43;2.10;;;10.70;69.40;;;;;;5014572;28;20018;-62
2021/04/24 08:55:53;;;;;;;15.55;3.75;;;10.70;69.20;;;;;;5015630;28;20536;-61
2021/04/24 08:58:20;;;;;;;10.73;2.20;;;10.70;68.30;;;;;;5015688;28;20533;-68
2021/04/24 09:00:49;;;;;;;10.82;2.08;;;10.70;67.70;;;;;;5014920;28;20034;-63
2021/04/24 09:03:20;;;;;;;10.68;2.63;;;10.80;68.20;;;;;;5015523;28;20029;-63
2021/04/24 09:05:46;;;;;;;16.23;2.67;;;10.80;65.30;;;;;;5015583;28;20379;-60
2021/04/24 09:08:12;;;;;;;6.10;1.98;;;10.80;65.60;;;;;;5014462;28;20018;-61
2021/04/24 09:10:43;;;;;;;6.80;1.90;;;10.90;66.90;;;;;;5015687;28;20026;-60
2021/04/24 09:13:19;;;;;;;10.18;2.33;;;10.90;66.50;;;;;;5014503;28;20026;-62
2021/04/24 09:15:46;;;;;;;10.00;2.00;;;10.90;63.90;;;;;;5014908;28;20045;-62
2021/04/24 09:18:15;;;;;;;8.88;1.70;;;10.90;65.10;;;;;;5015090;28;20026;-62
2021/04/24 09:20:51;;;;;;;15.35;2.33;;;11.00;64.40;;;;;;5014594;28;20038;-62
2021/04/24 09:23:22;;;;;;;12.60;1.85;;;11.00;63.50;;;;;;5014521;28;20018;-62
2021/04/24 09:25:57;;;;;;;5.07;1.55;;;11.10;62.50;;;;;;5015162;28;20519;-62
2021/04/24 09:28:41;;;;;;;6.90;2.22;;;11.10;61.10;;;;;;5014304;28;20033;-61
2021/04/24 09:31:12;;;;;;;9.55;1.77;;;11.20;63.60;;;;;;5015109;28;20053;-62
2021/04/24 09:33:38;;;;;;;12.38;4.05;;;11.20;64.10;;;;;;5015274;28;20499;-62
2021/04/24 09:36:07;;;;;;;3.92;1.58;;;11.20;64.10;;;;;;5014231;28;20389;-62
2021/04/24 09:38:46;;;;;;;11.98;2.28;;;11.20;64.00;;;;;;5010837;28;20038;-66
2021/04/24 09:41:13;;;;;;;9.45;1.92;;;11.20;64.00;;;;;;5014425;28;20033;-62
2021/04/24 09:44:07;;;;;;;6.85;1.67;;;11.20;62.70;;;;;;5013535;28;20038;-62
2021/04/24 09:46:33;;;;;;;;;;;11.30;64.30;;;;;;4997167;28;20639;-62
2021/04/24 09:49:17;;;;;;;2.70;1.08;;;11.30;64.80;;;;;;5010655;28;20008;-62
2021/04/24 09:52:11;;;;;;;8.43;2.53;;;11.30;63.00;;;;;;5014739;28;20048;-61
2021/04/24 09:54:47;;;;;;;11.80;2.25;;;11.30;63.20;;;;;;5011417;28;20037;-62
2021/04/24 09:57:20;;;;;;;6.93;2.40;;;11.40;63.20;;;;;;5013939;28;20065;-62
2021/04/24 09:59:56;;;;;;;14.13;2.25;;;11.40;63.40;;;;;;5014393;28;20461;-61
2021/04/24 10:02:39;;;;;;;9.80;1.77;;;11.50;63.10;;;;;;5012371;28;20061;-61
2021/04/24 10:05:15;;;;;;;12.37;2.40;;;11.50;62.00;;;;;;5000796;28;20046;-61
2021/04/24 10:07:47;;;;;;;11.10;2.55;;;11.60;62.00;;;;;;5014342;28;20049;-61
2021/04/24 10:10:24;;;;;;;12.30;3.05;;;11.60;62.60;;;;;;5013529;28;20474;-61
2021/04/24 10:12:58;;;;;;;7.15;1.50;;;11.70;62.60;;;;;;5014087;28;20069;-61
2021/04/24 10:15:37;;;;;;;9.55;1.88;;;11.70;63.10;;;;;;5013974;28;20227;-62
2021/04/24 10:18:05;;;;;;;10.38;2.75;;;11.80;63.80;;;;;;5013424;28;20034;-61
2021/04/24 10:20:32;;;;;;;9.85;1.52;;;11.80;61.10;;;;;;4996441;28;20049;-62
2021/04/24 10:23:00;;;;;;;13.43;2.33;;;11.80;62.40;;;;;;5014074;28;20032;-61
2021/04/24 10:25:26;;;;;;;3.05;1.38;;;11.90;62.00;;;;;;5008458;28;20030;-61
2021/04/24 10:27:52;;;;;;;5.32;1.50;;;11.90;62.50;;;;;;5014265;28;20038;-61
2021/04/24 10:30:19;;;;;;;5.90;1.80;;;11.90;63.50;;;;;;5013887;28;20026;-61
2021/04/24 10:32:45;;;;;;;8.80;1.73;;;11.90;62.30;;;;;;5012727;28;20505;-61
2021/04/24 10:35:13;;;;;;;7.68;1.55;;;11.90;62.10;;;;;;5012647;28;20034;-61
2021/04/24 10:37:39;;;;;;;4.47;1.75;;;12.00;61.80;;;;;;5010818;28;20026;-61
2021/04/24 10:40:07;;;;;;;7.38;2.15;;;12.00;61.70;;;;;;5010346;28;20108;-62
2021/04/24 10:42:33;;;;;;;9.38;2.53;;;12.00;61.00;;;;;;5013244;28;20473;-61
2021/04/24 10:45:01;;;;;;;8.68;1.33;;;12.00;60.20;;;;;;5012464;28;20481;-61
2021/04/24 10:47:40;;;;;;;8.98;2.13;;;12.00;61.40;;;;;;5013182;28;20087;-61
2021/04/24 10:50:08;;;;;;;4.95;2.10;;;12.10;60.90;;;;;;5013256;28;20113;-61
2021/04/24 10:52:34;;;;;;;8.43;1.52;;;12.10;61.20;;;;;;5012569;28;20095;-61
2021/04/24 10:55:11;;;;;;;4.93;1.35;;;12.10;63.00;;;;;;5012964;28;20034;-62
2021/04/24 10:57:40;;;;;;;7.30;1.90;;;12.10;60.90;;;;;;5012462;28;20484;-61
2021/04/24 11:00:11;;;;;;;7.15;1.92;;;12.10;63.40;;;;;;5011858;28;20492;-62
2021/04/24 11:02:53;;;;;;;15.02;2.60;;;12.10;63.30;;;;;;5012381;28;20037;-63
2021/04/24 11:05:25;;;;;;;9.90;1.92;;;12.10;59.40;;;;;;4999867;28;20500;-63
2021/04/24 11:08:12;;;;;;;9.85;2.13;;;12.10;62.50;;;;;;4992934;28;20050;-63
2021/04/24 11:10:45;;;;;;;9.23;1.88;;;12.10;61.90;;;;;;4992501;28;20484;-65
2021/04/24 11:13:14;;;;;;;6.35;1.67;;;12.10;61.50;;;;;;4995337;28;20420;-61
2021/04/24 11:15:41;;;;;;;7.10;1.88;;;12.20;60.90;;;;;;4996946;28;20042;-62
2021/04/24 11:18:10;;;;;;;5.88;1.40;;;12.20;64.00;;;;;;4996986;28;20109;-62
2021/04/24 11:21:04;;;;;;;9.63;2.10;;;12.20;63.50;;;;;;4996919;28;20041;-61
2021/04/24 11:23:32;;;;;;;6.97;2.13;;;12.20;64.10;;;;;;5001424;28;20023;-66
2021/04/24 11:26:04;;;;;;;7.18;2.13;;;12.20;63.40;;;;;;4998044;28;20038;-65
2021/04/24 11:28:31;;;;;;;7.30;1.88;;;12.20;60.80;;;;;;5002998;28;20548;-62
2021/04/24 11:31:02;;;;;;;17.02;2.92;;;12.20;61.80;;;;;;4997122;28;20025;-62
2021/04/24 11:33:45;;;;;;;9.98;1.83;;;12.30;63.30;;;;;;4994062;28;20031;-62
2021/04/24 11:36:17;;;;;;;6.53;1.50;;;12.30;63.20;;;;;;4991396;28;20026;-62
2021/04/24 11:38:59;;;;;;;6.53;1.20;;;12.30;64.00;;;;;;4994694;28;20402;-62
2021/04/24 11:41:44;;;;;;;5.05;1.67;;;12.30;62.90;;;;;;4993707;28;20066;-60
2021/04/24 11:44:16;;;;;;;5.43;1.20;;;12.40;59.60;;;;;;4994979;28;20429;-60
2021/04/24 11:46:43;;;;;;;6.35;1.60;;;12.40;59.90;;;;;;4992707;28;20486;-60
2021/04/24 11:49:13;;;;;;;5.05;1.70;;;12.40;60.30;;;;;;4994247;28;20418;-60
2021/04/24 11:51:46;;;;;;;4.25;1.48;;;12.40;61.00;;;;;;4995954;28;20473;-61
2021/04/24 11:54:27;;;;;;;5.95;1.73;;;12.40;58.40;;;;;;4994428;28;20084;-61
2021/04/24 11:56:55;;;;;;;6.88;1.70;;;12.40;61.00;;;;;;4993894;28;20034;-60
2021/04/24 11:59:24;;;;;;;6.07;2.00;;;12.50;61.40;;;;;;4993440;28;20117;-61
2021/04/24 12:01:51;;;;;;;7.78;1.80;;;12.40;62.50;;;;;;4992697;28;20088;-60
2021/04/24 12:04:25;;;;;;;9.15;1.75;;;12.40;63.20;;;;;;4992985;28;20054;-60
2021/04/24 12:06:59;;;;;;;6.43;2.03;;;12.40;61.60;;;;;;4995757;28;20354;-60
2021/04/24 12:09:25;;;;;;;8.05;2.25;;;12.50;61.10;;;;;;4991846;28;20702;-61
2021/04/24 12:12:00;;;;;;;6.32;1.90;;;12.50;59.80;;;;;;4992437;28;20063;-62
2021/04/24 12:14:28;;;;;;;4.55;1.90;;;12.50;58.80;;;;;;4993100;28;20125;-63
2021/04/24 12:16:55;;;;;;;13.93;2.15;;;12.50;62.70;;;;;;4975058;28;20073;-63
2021/04/24 12:19:26;;;;;;;13.63;2.50;;;12.50;61.60;;;;;;5008739;28;20038;-63
2021/04/24 12:22:01;;;;;;;12.32;1.75;;;12.50;60.00;;;;;;5009753;28;20052;-60
2021/04/24 12:24:27;;;;;;;2.90;1.48;;;12.50;62.10;;;;;;5008959;28;20029;-62
2021/04/24 12:26:52;;;;;;;13.75;2.15;;;12.50;62.40;;;;;;5002778;28;20034;-62
2021/04/24 12:29:49;;;;;;;12.43;2.55;;;12.50;61.60;;;;;;4994881;28;20022;-62
2021/04/24 12:32:17;;;;;;;8.82;2.05;;;12.60;60.50;;;;;;4996249;28;20045;-63
2021/04/24 12:34:43;;;;;;;5.85;1.50;;;12.50;61.40;;;;;;4992190;28;20030;-62
2021/04/24 12:37:10;;;;;;;8.88;1.80;;;12.50;60.60;;;;;;5005359;28;20030;-63
2021/04/24 12:39:40;;;;;;;5.18;1.42;;;12.60;61.80;;;;;;4990159;28;20030;-62
2021/04/24 12:42:09;;;;;;;4.43;1.33;;;12.60;62.20;;;;;;4993805;28;20100;-62
2021/04/24 12:44:35;;;;;;;5.15;2.03;;;12.60;62.50;;;;;;4996705;28;20033;-63
2021/04/24 12:47:01;;;;;;;12.23;2.75;;;12.60;61.90;;;;;;5003847;28;20084;-62
2021/04/24 12:49:27;;;;;;;8.10;1.50;;;12.60;60.20;;;;;;5011183;28;20026;-63
2021/04/24 12:52:04;;;;;;;2.63;1.00;;;12.70;61.50;;;;;;5010106;28;20038;-62